Terminal Aerodrome Forecast
Issued by NWS Raleigh/Durham, NC

Home | Current Version | Previous Version | Text Only | Print | Product List | Glossary On
Versions: 1 2 3 4 5 6 7 8 9 10 11 12 13 14 15 16 17 18 19 20 21 22 23 24 25 26 27 28 29 30
000
FTUS42 KRAH 301925 AAA
TAFFAY
TAF AMD
KFAY 301925Z 3019/3118 VRB04KT P6SM VCSH SCT050
      TEMPO 3110/3112 5SM BR BKN010
     FM311400 16006KT P6SM BKN060=

USA.gov is the U.S. government's official web portal to all federal, state and local government web resources and services.